createdAt,value
2023-02-11T00:01:35.597Z,6.38
2023-02-11T00:04:05.790Z,6.38
2023-02-11T00:06:35.617Z,6.38
2023-02-11T00:09:04.799Z,6.38
2023-02-11T00:11:32.557Z,6.39
2023-02-11T00:14:03.451Z,6.38
2023-02-11T00:16:32.343Z,6.37
2023-02-11T00:19:01.998Z,6.37
2023-02-11T00:21:29.952Z,6.37
2023-02-11T00:23:59.862Z,6.37
2023-02-11T00:26:35.242Z,6.38
2023-02-11T00:29:04.643Z,6.37
2023-02-11T00:31:33.176Z,6.37
2023-02-11T00:34:00.918Z,6.37
2023-02-11T00:36:30.129Z,6.37
2023-02-11T00:38:59.881Z,6.36
2023-02-11T00:41:29.552Z,6.36
2023-02-11T00:44:01.742Z,6.36
2023-02-11T00:46:30.520Z,6.37
2023-02-11T00:48:58.110Z,6.36
2023-02-11T00:51:28.618Z,6.38
2023-02-11T00:53:59.071Z,6.38
2023-02-11T00:56:28.006Z,6.37
2023-02-11T00:58:57.079Z,6.37
2023-02-11T01:01:25.298Z,6.37
2023-02-11T01:03:53.064Z,6.36
2023-02-11T01:06:23.349Z,6.36
2023-02-11T01:08:50.953Z,6.37
2023-02-11T01:11:21.583Z,6.37
2023-02-11T01:13:50.360Z,6.36
2023-02-11T01:16:20.173Z,6.36
2023-02-11T01:18:48.058Z,6.37
2023-02-11T01:21:19.156Z,6.36
2023-02-11T01:23:46.885Z,6.35
2023-02-11T01:26:14.403Z,6.35
2023-02-11T01:28:44.509Z,6.35
2023-02-11T01:31:12.136Z,6.34
2023-02-11T01:33:40.275Z,6.34
2023-02-11T01:36:12.745Z,6.34
2023-02-11T01:38:40.989Z,6.32
2023-02-11T01:41:13.349Z,6.32
2023-02-11T01:43:49.735Z,6.32
2023-02-11T01:46:38.646Z,6.32
2023-02-11T01:49:12.610Z,6.30
2023-02-11T01:51:46.875Z,6.30
2023-02-11T01:54:43.810Z,6.29
2023-02-11T01:57:27.361Z,6.24
2023-02-11T02:00:01.982Z,6.22
2023-02-11T02:03:00.463Z,6.22
2023-02-11T02:05:53.083Z,6.20
2023-02-11T02:08:51.064Z,6.18
2023-02-11T02:11:18.681Z,6.16
2023-02-11T02:13:46.435Z,6.17
2023-02-11T02:16:19.688Z,6.19
2023-02-11T02:19:19.637Z,6.17
2023-02-11T02:22:10.489Z,6.17
2023-02-11T02:25:15.066Z,6.17
2023-02-11T02:28:13.344Z,6.15
2023-02-11T02:31:17.844Z,6.17
2023-02-11T02:34:09.569Z,6.15
2023-02-11T02:37:15.135Z,6.14
2023-02-11T02:39:48.501Z,6.12
2023-02-11T02:42:18.652Z,6.14
2023-02-11T02:44:55.817Z,6.15
2023-02-11T02:47:23.407Z,6.13
2023-02-11T02:49:52.202Z,6.15
2023-02-11T02:52:53.838Z,6.15
2023-02-11T02:55:51.654Z,6.13
2023-02-11T02:58:34.955Z,6.13
2023-02-11T03:01:57.766Z,6.12
2023-02-11T03:05:02.828Z,6.12
2023-02-11T03:07:56.986Z,6.10
2023-02-11T03:10:33.063Z,6.08
2023-02-11T03:13:03.741Z,6.07
2023-02-11T03:15:40.663Z,6.06
2023-02-11T03:18:13.616Z,6.03
2023-02-11T03:20:45.625Z,6.01
2023-02-11T03:23:29.008Z,6.01
2023-02-11T03:26:05.594Z,5.97
2023-02-11T03:29:05.006Z,5.95
2023-02-11T03:32:17.654Z,5.92
2023-02-11T03:35:01.437Z,5.89
2023-02-11T03:37:50.722Z,5.87
2023-02-11T03:40:27.411Z,5.84
2023-02-11T03:43:01.112Z,5.82
2023-02-11T03:45:30.484Z,5.82
2023-02-11T03:48:06.171Z,5.81
2023-02-11T03:50:36.968Z,5.80
2023-02-11T03:53:06.349Z,5.79
2023-02-11T03:55:39.888Z,5.79
2023-02-11T03:58:09.095Z,5.76
2023-02-11T04:00:41.141Z,5.75
2023-02-11T04:03:10.993Z,5.74
2023-02-11T04:05:38.978Z,5.73
2023-02-11T04:08:07.058Z,5.72
2023-02-11T04:10:34.926Z,5.72
2023-02-11T04:13:02.415Z,5.70
2023-02-11T04:15:30.220Z,5.71
2023-02-11T04:17:57.917Z,5.70
2023-02-11T04:20:25.482Z,5.70
2023-02-11T04:22:53.220Z,5.70
2023-02-11T04:25:21.212Z,5.69
2023-02-11T04:27:48.697Z,5.71
2023-02-11T04:30:16.441Z,5.72
2023-02-11T04:32:43.980Z,5.71
2023-02-11T04:35:11.616Z,5.73
2023-02-11T04:37:39.465Z,5.73
2023-02-11T04:40:07.791Z,5.76
2023-02-11T04:42:35.321Z,5.77
2023-02-11T04:45:03.491Z,5.80
2023-02-11T04:47:31.044Z,5.79
2023-02-11T04:49:58.603Z,5.80
2023-02-11T04:52:26.310Z,5.84
2023-02-11T04:54:53.818Z,5.85
2023-02-11T04:57:21.325Z,5.87
2023-02-11T04:59:49.080Z,5.87
2023-02-11T05:02:16.717Z,5.88
2023-02-11T05:04:44.209Z,5.89
2023-02-11T05:07:11.870Z,5.90
2023-02-11T05:09:39.346Z,5.92
2023-02-11T05:12:07.060Z,5.94
2023-02-11T05:14:34.772Z,5.94
2023-02-11T05:17:02.400Z,5.95
2023-02-11T05:19:31.983Z,5.96
2023-02-11T05:22:03.033Z,5.96
2023-02-11T05:24:34.982Z,5.98
2023-02-11T05:27:02.571Z,5.96
2023-02-11T05:29:30.133Z,5.98
2023-02-11T05:31:59.621Z,5.99
2023-02-11T05:34:27.309Z,6.00
2023-02-11T05:36:55.187Z,6.01
2023-02-11T05:39:22.727Z,6.02
2023-02-11T05:41:50.386Z,6.03
2023-02-11T05:44:18.107Z,6.03
2023-02-11T05:46:45.765Z,6.03
2023-02-11T05:49:13.281Z,6.03
2023-02-11T05:51:41.138Z,6.04
2023-02-11T05:54:08.700Z,6.07
2023-02-11T05:56:36.183Z,6.07
2023-02-11T05:59:04.089Z,6.08
2023-02-11T06:01:31.665Z,6.08
2023-02-11T06:03:59.347Z,6.09
2023-02-11T06:06:26.996Z,6.10
2023-02-11T06:08:54.639Z,6.10
2023-02-11T06:11:22.448Z,6.11
2023-02-11T06:13:50.071Z,6.12
2023-02-11T06:16:17.903Z,6.13
2023-02-11T06:18:45.430Z,6.14
2023-02-11T06:21:13.055Z,6.14
2023-02-11T06:23:40.579Z,6.14
2023-02-11T06:26:15.589Z,6.17
2023-02-11T06:28:44.314Z,6.17
2023-02-11T06:31:14.661Z,6.18
2023-02-11T06:33:42.375Z,6.17
2023-02-11T06:36:18.234Z,6.18
2023-02-11T06:38:46.695Z,6.17
2023-02-11T06:41:17.586Z,6.17
2023-02-11T06:43:45.138Z,6.18
2023-02-11T06:46:12.825Z,6.18
2023-02-11T06:48:43.066Z,6.19
2023-02-11T06:51:13.434Z,6.14
2023-02-11T06:53:45.067Z,6.14
2023-02-11T06:56:16.192Z,6.11
2023-02-11T06:58:43.872Z,6.12
2023-02-11T07:01:16.021Z,6.15
2023-02-11T07:03:46.690Z,6.18
2023-02-11T07:06:22.425Z,6.20
2023-02-11T07:08:50.579Z,6.20
2023-02-11T07:11:24.427Z,6.21
2023-02-11T07:13:55.320Z,6.21
2023-02-11T07:16:23.714Z,6.22
2023-02-11T07:18:51.851Z,6.22
2023-02-11T07:21:24.315Z,6.24
2023-02-11T07:23:52.697Z,6.23
2023-02-11T07:26:23.543Z,6.25
2023-02-11T07:28:53.100Z,6.26
2023-02-11T07:31:26.757Z,6.27
2023-02-11T07:33:59.170Z,6.27
2023-02-11T07:36:29.350Z,6.29
2023-02-11T07:38:57.387Z,6.30
2023-02-11T07:41:26.400Z,6.31
2023-02-11T07:43:54.980Z,6.31
2023-02-11T07:46:28.178Z,6.34
2023-02-11T07:48:56.341Z,6.34
2023-02-11T07:51:30.371Z,6.37
2023-02-11T07:54:00.562Z,6.38
2023-02-11T07:56:29.671Z,6.39
2023-02-11T07:59:02.446Z,6.40
2023-02-11T08:01:30.940Z,6.42
2023-02-11T08:04:01.487Z,6.44
2023-02-11T08:06:34.634Z,6.44
2023-02-11T08:09:08.908Z,6.47
2023-02-11T08:11:36.742Z,6.48
2023-02-11T08:14:04.521Z,6.49
2023-02-11T08:16:35.323Z,6.50
2023-02-11T08:19:07.746Z,6.49
2023-02-11T08:21:35.559Z,6.51
2023-02-11T08:24:03.900Z,6.54
2023-02-11T08:26:35.201Z,6.57
2023-02-11T08:29:10.420Z,6.58
2023-02-11T08:31:42.562Z,6.60
2023-02-11T08:34:11.984Z,6.62
2023-02-11T08:36:42.416Z,6.64
2023-02-11T08:39:20.232Z,6.66
2023-02-11T08:41:52.312Z,6.67
2023-02-11T08:44:21.161Z,6.65
2023-02-11T08:46:50.206Z,6.68
2023-02-11T08:49:17.960Z,6.72
2023-02-11T08:51:46.861Z,6.76
2023-02-11T08:54:15.783Z,6.80
2023-02-11T08:56:44.087Z,6.83
2023-02-11T08:59:15.422Z,6.88
2023-02-11T09:01:44.271Z,6.89
2023-02-11T09:04:11.995Z,6.93
2023-02-11T09:06:40.138Z,6.98
2023-02-11T09:09:13.650Z,7.02
2023-02-11T09:11:44.054Z,7.05
2023-02-11T09:14:21.738Z,7.08
2023-02-11T09:16:51.496Z,7.10
2023-02-11T09:19:19.933Z,7.12
2023-02-11T09:21:47.788Z,7.16
2023-02-11T09:24:15.775Z,7.21
2023-02-11T09:26:44.046Z,7.24
2023-02-11T09:29:12.901Z,7.28
2023-02-11T09:31:41.142Z,7.31
2023-02-11T09:34:08.884Z,7.33
2023-02-11T09:36:39.632Z,7.35
2023-02-11T09:39:17.126Z,7.38
2023-02-11T09:42:20.251Z,7.41
2023-02-11T09:44:47.932Z,7.42
2023-02-11T09:47:33.106Z,7.47
2023-02-11T09:50:07.296Z,7.49
2023-02-11T09:52:47.609Z,7.52
2023-02-11T09:55:47.521Z,7.56
2023-02-11T09:58:24.780Z,7.58
2023-02-11T10:01:41.506Z,7.61
2023-02-11T10:04:18.242Z,7.64
2023-02-11T10:06:53.000Z,7.67
2023-02-11T10:10:03.649Z,7.71
2023-02-11T10:13:10.595Z,7.75
2023-02-11T10:15:48.803Z,7.78
2023-02-11T10:18:29.386Z,7.84
2023-02-11T10:21:24.509Z,7.90
2023-02-11T10:23:57.351Z,7.91
2023-02-11T10:26:30.963Z,7.94
2023-02-11T10:29:14.050Z,7.95
2023-02-11T10:31:45.008Z,7.95
2023-02-11T10:34:14.924Z,7.97
2023-02-11T10:36:45.018Z,7.98
2023-02-11T10:39:20.726Z,8.00
2023-02-11T10:41:57.611Z,8.02
2023-02-11T10:45:17.785Z,8.05
2023-02-11T10:47:45.596Z,8.01
2023-02-11T10:50:35.251Z,8.02
2023-02-11T10:53:20.761Z,8.03
2023-02-11T10:55:53.938Z,8.00
2023-02-11T10:58:35.900Z,8.02
2023-02-11T11:01:08.022Z,7.96
2023-02-11T11:03:50.061Z,7.96
2023-02-11T11:06:32.454Z,7.99
2023-02-11T11:09:01.119Z,8.03
2023-02-11T11:11:28.812Z,8.07
2023-02-11T11:14:01.223Z,8.12
2023-02-11T11:16:36.094Z,8.15
2023-02-11T11:19:06.608Z,8.20
2023-02-11T11:21:55.849Z,8.27
2023-02-11T11:24:35.316Z,8.31
2023-02-11T11:27:05.371Z,8.34
2023-02-11T11:29:50.413Z,8.38
2023-02-11T11:32:28.336Z,8.45
2023-02-11T11:35:01.209Z,8.54
2023-02-11T11:37:33.161Z,8.62
2023-02-11T11:40:15.523Z,8.69
2023-02-11T11:42:43.798Z,8.71
2023-02-11T11:45:19.914Z,8.75
2023-02-11T11:48:09.673Z,8.77
2023-02-11T11:50:47.640Z,8.80
2023-02-11T11:53:23.608Z,8.84
2023-02-11T11:55:59.855Z,8.82
2023-02-11T11:58:30.159Z,8.80
2023-02-11T12:01:22.855Z,8.83
2023-02-11T12:05:01.429Z,8.84
2023-02-11T12:08:28.139Z,8.92
2023-02-11T12:11:10.674Z,9.07
2023-02-11T12:14:27.426Z,9.23
2023-02-11T12:17:50.959Z,9.37
2023-02-11T12:20:43.617Z,9.46
2023-02-11T12:23:38.710Z,9.51
2023-02-11T12:26:23.463Z,9.52
2023-02-11T12:29:57.851Z,9.56
2023-02-11T12:32:51.336Z,9.57
2023-02-11T12:36:14.121Z,9.64
2023-02-11T12:39:16.133Z,9.71
2023-02-11T12:42:29.534Z,9.79
2023-02-11T12:45:27.471Z,9.80
2023-02-11T12:48:10.567Z,9.81
2023-02-11T12:51:05.898Z,9.87
2023-02-11T12:54:08.104Z,9.93
2023-02-11T12:57:18.490Z,10.00
2023-02-11T13:00:00.701Z,10.01
2023-02-11T13:02:49.377Z,10.07
2023-02-11T13:05:58.787Z,10.16
2023-02-11T13:08:31.456Z,10.27
2023-02-11T13:11:29.750Z,10.34
2023-02-11T13:14:19.350Z,10.40
2023-02-11T13:16:50.778Z,10.41
2023-02-11T13:19:33.041Z,10.48
2023-02-11T13:22:43.610Z,10.56
2023-02-11T13:25:36.317Z,10.61
2023-02-11T13:28:47.786Z,10.65
2023-02-11T13:31:16.773Z,10.66
2023-02-11T13:33:45.790Z,10.70
2023-02-11T13:36:27.750Z,10.70
2023-02-11T13:39:21.424Z,10.73
2023-02-11T13:41:52.254Z,10.73
2023-02-11T13:44:26.587Z,10.73
2023-02-11T13:47:07.173Z,10.75
2023-02-11T13:49:52.221Z,10.79
2023-02-11T13:52:27.475Z,10.79
2023-02-11T13:55:12.198Z,10.74
2023-02-11T13:57:41.902Z,10.71
2023-02-11T14:00:34.680Z,10.73
2023-02-11T14:03:30.296Z,10.74
2023-02-11T14:06:30.611Z,10.79
2023-02-11T14:09:22.346Z,10.77
2023-02-11T14:11:55.339Z,10.76
2023-02-11T14:14:28.900Z,10.77
2023-02-11T14:16:59.796Z,10.75
2023-02-11T14:19:43.868Z,10.73
2023-02-11T14:22:25.976Z,10.71
2023-02-11T14:25:04.674Z,10.71
2023-02-11T14:27:51.484Z,10.72
2023-02-11T14:30:46.517Z,10.68
2023-02-11T14:34:06.924Z,10.68
2023-02-11T14:36:52.854Z,10.63
2023-02-11T14:39:23.148Z,10.58
2023-02-11T14:41:51.669Z,10.56
2023-02-11T14:44:27.439Z,10.52
2023-02-11T14:46:56.160Z,10.49
2023-02-11T14:49:31.195Z,10.48
2023-02-11T14:52:27.597Z,10.46
2023-02-11T14:55:09.085Z,10.41
2023-02-11T14:57:37.961Z,10.38
2023-02-11T15:00:19.130Z,10.38
2023-02-11T15:02:47.078Z,10.41
2023-02-11T15:05:19.369Z,10.42
2023-02-11T15:08:00.736Z,10.42
2023-02-11T15:10:43.938Z,10.42
2023-02-11T15:13:21.630Z,10.42
2023-02-11T15:15:55.900Z,10.40
2023-02-11T15:18:33.943Z,10.39
2023-02-11T15:21:01.978Z,10.34
2023-02-11T15:23:31.723Z,10.35
2023-02-11T15:26:04.631Z,10.35
2023-02-11T15:28:35.447Z,10.33
2023-02-11T15:31:17.838Z,10.33
2023-02-11T15:33:46.919Z,10.30
2023-02-11T15:36:17.669Z,10.29
2023-02-11T15:38:45.263Z,10.27
2023-02-11T15:41:38.431Z,10.25
2023-02-11T15:44:05.946Z,10.20
2023-02-11T15:46:39.797Z,10.18
2023-02-11T15:49:19.222Z,10.14
2023-02-11T15:51:47.602Z,10.10
2023-02-11T15:54:22.192Z,10.07
2023-02-11T15:56:55.456Z,10.05
2023-02-11T15:59:52.210Z,10.05
2023-02-11T16:02:25.650Z,10.00
2023-02-11T16:05:06.069Z,9.98
2023-02-11T16:07:49.812Z,9.96
2023-02-11T16:10:36.093Z,9.94
2023-02-11T16:13:06.442Z,9.91
2023-02-11T16:15:33.874Z,9.89
2023-02-11T16:18:12.683Z,9.89
2023-02-11T16:20:40.886Z,9.86
2023-02-11T16:23:08.583Z,9.82
2023-02-11T16:25:37.424Z,9.79
2023-02-11T16:28:05.457Z,9.76
2023-02-11T16:30:40.527Z,9.74
2023-02-11T16:33:11.298Z,9.72
2023-02-11T16:35:39.048Z,9.70
2023-02-11T16:38:06.525Z,9.66
2023-02-11T16:40:35.685Z,9.65
2023-02-11T16:43:03.152Z,9.63
2023-02-11T16:45:31.750Z,9.60
2023-02-11T16:48:00.130Z,9.57
2023-02-11T16:50:28.344Z,9.55
2023-02-11T16:52:55.883Z,9.51
2023-02-11T16:55:23.449Z,9.51
2023-02-11T16:57:51.149Z,9.47
2023-02-11T17:00:21.032Z,9.45
2023-02-11T17:02:48.840Z,9.43
2023-02-11T17:05:23.066Z,9.41
2023-02-11T17:07:51.916Z,9.36
2023-02-11T17:10:23.554Z,9.36
2023-02-11T17:12:52.558Z,9.29
2023-02-11T17:15:20.234Z,9.26
2023-02-11T17:17:48.169Z,9.25
2023-02-11T17:20:16.382Z,9.25
2023-02-11T17:22:43.886Z,9.25
2023-02-11T17:25:11.837Z,9.23
2023-02-11T17:27:39.550Z,9.22
2023-02-11T17:30:08.689Z,9.20
2023-02-11T17:32:37.425Z,9.16
2023-02-11T17:35:08.317Z,9.13
2023-02-11T17:37:35.841Z,9.09
2023-02-11T17:40:03.894Z,9.04
2023-02-11T17:42:31.413Z,9.00
2023-02-11T17:44:59.132Z,8.97
2023-02-11T17:47:26.703Z,8.95
2023-02-11T17:49:54.290Z,8.92
2023-02-11T17:52:21.861Z,8.88
2023-02-11T17:54:49.878Z,8.84
2023-02-11T17:57:17.631Z,8.78
2023-02-11T17:59:45.343Z,8.76
2023-02-11T18:02:13.134Z,8.74
2023-02-11T18:04:40.804Z,8.72
2023-02-11T18:07:08.390Z,8.70
2023-02-11T18:09:40.407Z,8.67
2023-02-11T18:12:08.903Z,8.64
2023-02-11T18:14:40.419Z,8.62
2023-02-11T18:17:08.173Z,8.58
2023-02-11T18:19:36.629Z,8.57
2023-02-11T18:22:04.460Z,8.53
2023-02-11T18:24:32.074Z,8.53
2023-02-11T18:26:59.699Z,8.51
2023-02-11T18:29:27.758Z,8.49
2023-02-11T18:31:57.627Z,8.48
2023-02-11T18:34:25.935Z,8.46
2023-02-11T18:36:54.218Z,8.45
2023-02-11T18:39:24.252Z,8.44
2023-02-11T18:41:56.776Z,8.44
2023-02-11T18:44:25.803Z,8.43
2023-02-11T18:46:54.196Z,8.42
2023-02-11T18:49:21.802Z,8.41
2023-02-11T18:51:49.537Z,8.42
2023-02-11T18:54:17.066Z,8.43
2023-02-11T18:56:44.986Z,8.42
2023-02-11T18:59:12.739Z,8.43
2023-02-11T19:01:43.262Z,8.41
2023-02-11T19:04:11.427Z,8.42
2023-02-11T19:06:39.339Z,8.40
2023-02-11T19:09:15.450Z,8.42
2023-02-11T19:11:53.872Z,8.39
2023-02-11T19:14:28.718Z,8.42
2023-02-11T19:17:00.486Z,8.41
2023-02-11T19:19:32.392Z,8.40
2023-02-11T19:22:02.438Z,8.40
2023-02-11T19:24:30.837Z,8.39
2023-02-11T19:27:03.214Z,8.40
2023-02-11T19:29:35.282Z,8.39
2023-02-11T19:32:08.501Z,8.39
2023-02-11T19:34:41.406Z,8.39
2023-02-11T19:37:12.693Z,8.38
2023-02-11T19:39:42.714Z,8.38
2023-02-11T19:42:10.728Z,8.37
2023-02-11T19:44:38.625Z,8.39
2023-02-11T19:47:06.910Z,8.38
2023-02-11T19:49:34.588Z,8.38
2023-02-11T19:52:02.294Z,8.39
2023-02-11T19:54:29.799Z,8.39
2023-02-11T19:56:58.046Z,8.39
2023-02-11T19:59:25.763Z,8.39
2023-02-11T20:01:53.905Z,8.39
2023-02-11T20:04:21.568Z,8.39
2023-02-11T20:06:49.525Z,8.37
2023-02-11T20:09:17.079Z,8.38
2023-02-11T20:11:45.001Z,8.38
2023-02-11T20:14:15.220Z,8.40
2023-02-11T20:16:49.253Z,8.39
2023-02-11T20:19:22.014Z,8.40
2023-02-11T20:21:53.332Z,8.39
2023-02-11T20:24:22.082Z,8.39
2023-02-11T20:26:51.636Z,8.36
2023-02-11T20:29:19.348Z,8.35
2023-02-11T20:31:48.962Z,8.34
2023-02-11T20:34:18.184Z,8.33
2023-02-11T20:36:51.793Z,8.33
2023-02-11T20:39:23.526Z,8.31
2023-02-11T20:41:53.674Z,8.31
2023-02-11T20:44:22.639Z,8.31
2023-02-11T20:46:54.143Z,8.32
2023-02-11T20:49:23.596Z,8.23
2023-02-11T20:51:53.585Z,8.24
2023-02-11T20:54:23.226Z,8.27
2023-02-11T20:56:53.623Z,8.29
2023-02-11T20:59:21.815Z,8.28
2023-02-11T21:01:54.100Z,8.30
2023-02-11T21:04:29.779Z,8.29
2023-02-11T21:07:01.394Z,8.28
2023-02-11T21:09:32.501Z,8.27
2023-02-11T21:12:00.824Z,8.26
2023-02-11T21:14:29.413Z,8.26
2023-02-11T21:16:57.619Z,8.26
2023-02-11T21:19:25.233Z,8.27
2023-02-11T21:21:54.782Z,8.25
2023-02-11T21:24:22.952Z,8.26
2023-02-11T21:26:50.478Z,8.26
2023-02-11T21:29:18.075Z,8.24
2023-02-11T21:31:46.241Z,8.23
2023-02-11T21:34:15.787Z,8.23
2023-02-11T21:36:45.317Z,8.22
2023-02-11T21:39:14.513Z,8.21
2023-02-11T21:41:41.953Z,8.21
2023-02-11T21:44:09.549Z,8.21
2023-02-11T21:46:37.350Z,8.20
2023-02-11T21:49:05.065Z,8.19
2023-02-11T21:51:32.539Z,8.19
2023-02-11T21:54:02.686Z,8.20
2023-02-11T21:56:33.884Z,8.18
2023-02-11T21:59:02.025Z,8.17
2023-02-11T22:01:35.305Z,8.17
2023-02-11T22:04:04.315Z,8.14
2023-02-11T22:06:34.601Z,8.14
2023-02-11T22:09:07.077Z,8.12
2023-02-11T22:11:35.394Z,8.11
2023-02-11T22:14:03.536Z,8.09
2023-02-11T22:16:31.680Z,8.09
2023-02-11T22:18:59.407Z,8.09
2023-02-11T22:21:27.056Z,8.07
2023-02-11T22:23:56.062Z,8.07
2023-02-11T22:26:27.125Z,8.06
2023-02-11T22:28:55.967Z,8.05
2023-02-11T22:31:30.519Z,8.05
2023-02-11T22:34:00.237Z,8.03
2023-02-11T22:36:35.650Z,8.03
2023-02-11T22:39:08.297Z,8.01
2023-02-11T22:41:38.162Z,7.98
2023-02-11T22:44:05.739Z,8.00
2023-02-11T22:46:33.449Z,7.99
2023-02-11T22:49:00.983Z,7.97
2023-02-11T22:51:30.448Z,7.97
2023-02-11T22:54:05.985Z,7.96
2023-02-11T22:56:35.033Z,7.95
2023-02-11T22:59:08.352Z,7.95
2023-02-11T23:01:35.971Z,7.93
2023-02-11T23:04:06.629Z,7.93
2023-02-11T23:06:35.134Z,7.93
2023-02-11T23:09:09.889Z,7.93
2023-02-11T23:11:38.016Z,7.92
2023-02-11T23:14:05.657Z,7.92
2023-02-11T23:16:34.787Z,7.92
2023-02-11T23:19:09.272Z,7.92
2023-02-11T23:21:39.316Z,7.90
2023-02-11T23:24:14.951Z,7.91
2023-02-11T23:26:44.167Z,7.89
2023-02-11T23:29:12.543Z,7.89
2023-02-11T23:31:45.227Z,7.89
2023-02-11T23:34:20.291Z,7.89
2023-02-11T23:36:48.033Z,7.88
2023-02-11T23:39:16.968Z,7.88
2023-02-11T23:41:45.728Z,7.88
2023-02-11T23:44:13.286Z,7.86
2023-02-11T23:46:40.856Z,7.87
2023-02-11T23:49:08.847Z,7.89
2023-02-11T23:51:36.480Z,7.86
2023-02-11T23:54:04.263Z,7.88
2023-02-11T23:56:32.291Z,7.87
2023-02-11T23:58:59.842Z,7.88
